<?xml version="1.0" encoding="utf-8"?>
<gpx xmlns:xsi="http://www.w3.org/2001/XMLSchema-instance" xmlns:xsd="http://www.w3.org/2001/XMLSchema" version="1.1" creator="Shapelink.com" xmlns="http://www.topografix.com/GPX/1/1" xmlns:gpxtpx="http://www.garmin.com/xmlschemas/TrackPointExtension/v1">
  <metadata>
    <name>Övrigt 2.30 km, 2019-05-21</name>
    <desc></desc>
    <author><name>Marian Moron</name></author> 
    <time>2019-05-21T20:18:15Z</time>
  </metadata>
  <trk>
    <name>Övrigt 2.30 km, 2019-05-21</name>
    <trkseg>
      <trkpt lat="51.230014717366" lon="4.458060533526">
        <ele>16</ele>
        <time>2019-05-21T20:18:15Z</time>
      </trkpt>
      <trkpt lat="51.230013040986" lon="4.458094396402">
        <ele>16</ele>
        <time>2019-05-21T20:18:17Z</time>
      </trkpt>
      <trkpt lat="51.229979094291" lon="4.458251976122">
        <ele>15.2</ele>
        <time>2019-05-21T20:18:33Z</time>
      </trkpt>
      <trkpt lat="51.230024775646" lon="4.458821358589">
        <ele>16</ele>
        <time>2019-05-21T20:18:58Z</time>
      </trkpt>
      <trkpt lat="51.230058387065" lon="4.458899729354">
        <ele>15.4</ele>
        <time>2019-05-21T20:19:07Z</time>
      </trkpt>
      <trkpt lat="51.230283273442" lon="4.45896795802">
        <ele>9.4</ele>
        <time>2019-05-21T20:19:45Z</time>
      </trkpt>
      <trkpt lat="51.230425262828" lon="4.459058314902">
        <ele>4.2</ele>
        <time>2019-05-21T20:20:14Z</time>
      </trkpt>
      <trkpt lat="51.230481170101" lon="4.45934262895">
        <ele>2.6</ele>
        <time>2019-05-21T20:20:34Z</time>
      </trkpt>
      <trkpt lat="51.230490138734" lon="4.459367607012">
        <ele>2.6</ele>
        <time>2019-05-21T20:20:38Z</time>
      </trkpt>
      <trkpt lat="51.230497766263" lon="4.459405744657">
        <ele>2.4</ele>
        <time>2019-05-21T20:20:41Z</time>
      </trkpt>
      <trkpt lat="51.230528779293" lon="4.459487132906">
        <ele>2.6</ele>
        <time>2019-05-21T20:20:58Z</time>
      </trkpt>
      <trkpt lat="51.230582004358" lon="4.459626356265">
        <ele>3.2</ele>
        <time>2019-05-21T20:21:15Z</time>
      </trkpt>
      <trkpt lat="51.230686442832" lon="4.459748983462">
        <ele>3.6</ele>
        <time>2019-05-21T20:21:32Z</time>
      </trkpt>
      <trkpt lat="51.230839580145" lon="4.459679832787">
        <ele>3</ele>
        <time>2019-05-21T20:21:52Z</time>
      </trkpt>
      <trkpt lat="51.231291616012" lon="4.459607916085">
        <ele>0</ele>
        <time>2019-05-21T20:22:25Z</time>
      </trkpt>
      <trkpt lat="51.231344254344" lon="4.459594421226">
        <ele>0</ele>
        <time>2019-05-21T20:22:31Z</time>
      </trkpt>
      <trkpt lat="51.231633094618" lon="4.459677653493">
        <ele>0</ele>
        <time>2019-05-21T20:23:42Z</time>
      </trkpt>
      <trkpt lat="51.23148372916" lon="4.459734398956">
        <ele>0</ele>
        <time>2019-05-21T20:24:02Z</time>
      </trkpt>
      <trkpt lat="51.231199834207" lon="4.459703972659">
        <ele>0</ele>
        <time>2019-05-21T20:24:18Z</time>
      </trkpt>
      <trkpt lat="51.231239564413" lon="4.460402017291">
        <ele>0</ele>
        <time>2019-05-21T20:24:38Z</time>
      </trkpt>
      <trkpt lat="51.231292286564" lon="4.460837289358">
        <ele>0</ele>
        <time>2019-05-21T20:24:50Z</time>
      </trkpt>
      <trkpt lat="51.231335620987" lon="4.461410946594">
        <ele>0</ele>
        <time>2019-05-21T20:25:15Z</time>
      </trkpt>
      <trkpt lat="51.231188518642" lon="4.462033051212">
        <ele>0</ele>
        <time>2019-05-21T20:26:08Z</time>
      </trkpt>
      <trkpt lat="51.231169575548" lon="4.462256596485">
        <ele>0</ele>
        <time>2019-05-21T20:26:34Z</time>
      </trkpt>
      <trkpt lat="51.23134961876" lon="4.462742495228">
        <ele>0</ele>
        <time>2019-05-21T20:27:11Z</time>
      </trkpt>
      <trkpt lat="51.231419523806" lon="4.463182209702">
        <ele>0</ele>
        <time>2019-05-21T20:28:09Z</time>
      </trkpt>
      <trkpt lat="51.231325897983" lon="4.463884277646">
        <ele>0</ele>
        <time>2019-05-21T20:28:47Z</time>
      </trkpt>
      <trkpt lat="51.231317516083" lon="4.464116037181">
        <ele>0</ele>
        <time>2019-05-21T20:29:08Z</time>
      </trkpt>
      <trkpt lat="51.231405358395" lon="4.464506633721">
        <ele>0</ele>
        <time>2019-05-21T20:29:40Z</time>
      </trkpt>
      <trkpt lat="51.231603087416" lon="4.464562624813">
        <ele>0</ele>
        <time>2019-05-21T20:30:09Z</time>
      </trkpt>
      <trkpt lat="51.231745412078" lon="4.464709056606">
        <ele>0</ele>
        <time>2019-05-21T20:30:22Z</time>
      </trkpt>
      <trkpt lat="51.231781370429" lon="4.464754402685">
        <ele>0</ele>
        <time>2019-05-21T20:30:26Z</time>
      </trkpt>
      <trkpt lat="51.232030145221" lon="4.465065538813">
        <ele>0</ele>
        <time>2019-05-21T20:30:49Z</time>
      </trkpt>
      <trkpt lat="51.232049088315" lon="4.465340968047">
        <ele>0</ele>
        <time>2019-05-21T20:31:04Z</time>
      </trkpt>
      <trkpt lat="51.231933753371" lon="4.4655494259">
        <ele>0</ele>
        <time>2019-05-21T20:31:46Z</time>
      </trkpt>
      <trkpt lat="51.231856807529" lon="4.465717734452">
        <ele>0</ele>
        <time>2019-05-21T20:31:55Z</time>
      </trkpt>
      <trkpt lat="51.231820932997" lon="4.465800631443">
        <ele>0</ele>
        <time>2019-05-21T20:32:05Z</time>
      </trkpt>
      <trkpt lat="51.231579115182" lon="4.466307736393">
        <ele>0</ele>
        <time>2019-05-21T20:32:36Z</time>
      </trkpt>
      <trkpt lat="51.231423295661" lon="4.466641252194">
        <ele>0</ele>
        <time>2019-05-21T20:32:54Z</time>
      </trkpt>
      <trkpt lat="51.23139991016" lon="4.466680898581">
        <ele>0</ele>
        <time>2019-05-21T20:32:57Z</time>
      </trkpt>
      <trkpt lat="51.231381134704" lon="4.466719958235">
        <ele>0</ele>
        <time>2019-05-21T20:33:04Z</time>
      </trkpt>
      <trkpt lat="51.231294717315" lon="4.4669492032">
        <ele>0</ele>
        <time>2019-05-21T20:33:19Z</time>
      </trkpt>
      <trkpt lat="51.231236127834" lon="4.467111979698">
        <ele>0</ele>
        <time>2019-05-21T20:33:42Z</time>
      </trkpt>
      <trkpt lat="51.231210311582" lon="4.467138298864">
        <ele>0</ele>
        <time>2019-05-21T20:33:46Z</time>
      </trkpt>
      <trkpt lat="51.23107133968" lon="4.467173502844">
        <ele>0</ele>
        <time>2019-05-21T20:33:57Z</time>
      </trkpt>
      <trkpt lat="51.230864725845" lon="4.467211808127">
        <ele>0</ele>
        <time>2019-05-21T20:34:17Z</time>
      </trkpt>
      <trkpt lat="51.230845112199" lon="4.467233517248">
        <ele>0</ele>
        <time>2019-05-21T20:34:20Z</time>
      </trkpt>
      <trkpt lat="51.230458790428" lon="4.467370058399">
        <ele>0</ele>
        <time>2019-05-21T20:34:52Z</time>
      </trkpt>
      <trkpt lat="51.230278160483" lon="4.467417499953">
        <ele>0</ele>
        <time>2019-05-21T20:35:06Z</time>
      </trkpt>
      <trkpt lat="51.230248740014" lon="4.467441639825">
        <ele>0</ele>
        <time>2019-05-21T20:35:10Z</time>
      </trkpt>
      <trkpt lat="51.230206159962" lon="4.467445076404">
        <ele>0</ele>
        <time>2019-05-21T20:35:14Z</time>
      </trkpt>
      <trkpt lat="51.23017028543" lon="4.467449183535">
        <ele>0</ele>
        <time>2019-05-21T20:35:18Z</time>
      </trkpt>
      <trkpt lat="51.229964342147" lon="4.467503833523">
        <ele>0</ele>
        <time>2019-05-21T20:35:41Z</time>
      </trkpt>
      <trkpt lat="51.229638453875" lon="4.467613804051">
        <ele>0</ele>
        <time>2019-05-21T20:36:13Z</time>
      </trkpt>
      <trkpt lat="51.229307452644" lon="4.46756443466">
        <ele>0</ele>
        <time>2019-05-21T20:36:43Z</time>
      </trkpt>
      <trkpt lat="51.229148950915" lon="4.467521938427">
        <ele>0</ele>
        <time>2019-05-21T20:36:57Z</time>
      </trkpt>
      <trkpt lat="51.229058258757" lon="4.467490087207">
        <ele>0</ele>
        <time>2019-05-21T20:37:05Z</time>
      </trkpt>
      <trkpt lat="51.22901777418" lon="4.467469132457">
        <ele>0</ele>
        <time>2019-05-21T20:37:09Z</time>
      </trkpt>
      <trkpt lat="51.22890210396" lon="4.467431833002">
        <ele>0</ele>
        <time>2019-05-21T20:37:24Z</time>
      </trkpt>
      <trkpt lat="51.228453420853" lon="4.467280120612">
        <ele>0</ele>
        <time>2019-05-21T20:38:08Z</time>
      </trkpt>
      <trkpt lat="51.228382593798" lon="4.467242318243">
        <ele>0</ele>
        <time>2019-05-21T20:38:17Z</time>
      </trkpt>
      <trkpt lat="51.228135076291" lon="4.467021119902">
        <ele>1.8</ele>
        <time>2019-05-21T20:38:49Z</time>
      </trkpt>
      <trkpt lat="51.227950590672" lon="4.466819367569">
        <ele>5.2</ele>
        <time>2019-05-21T20:39:14Z</time>
      </trkpt>
      <trkpt lat="51.227890073354" lon="4.466705625186">
        <ele>3</ele>
        <time>2019-05-21T20:39:26Z</time>
      </trkpt>
      <trkpt lat="51.227898119978" lon="4.466649047361">
        <ele>2</ele>
        <time>2019-05-21T20:39:30Z</time>
      </trkpt>
      <trkpt lat="51.227940029478" lon="4.466511919477">
        <ele>0</ele>
        <time>2019-05-21T20:39:44Z</time>
      </trkpt>
      <trkpt lat="51.228010018343" lon="4.466236909338">
        <ele>4</ele>
        <time>2019-05-21T20:40:20Z</time>
      </trkpt>
      <trkpt lat="51.227973892354" lon="4.466204471385">
        <ele>4</ele>
        <time>2019-05-21T20:40:24Z</time>
      </trkpt>
      <trkpt lat="51.227860317609" lon="4.46560307006">
        <ele>0</ele>
        <time>2019-05-21T20:41:01Z</time>
      </trkpt>
      <trkpt lat="51.22792058347" lon="4.465503157812">
        <ele>2.6</ele>
        <time>2019-05-21T20:41:15Z</time>
      </trkpt>
      <trkpt lat="51.227960146038" lon="4.465355971648">
        <ele>0.4</ele>
        <time>2019-05-21T20:41:23Z</time>
      </trkpt>
      <trkpt lat="51.227820922679" lon="4.464871246371">
        <ele>0.6</ele>
        <time>2019-05-21T20:41:52Z</time>
      </trkpt>
      <trkpt lat="51.227812876055" lon="4.464637139904">
        <ele>0</ele>
        <time>2019-05-21T20:42:03Z</time>
      </trkpt>
      <trkpt lat="51.227825868" lon="4.463914620124">
        <ele>3.8</ele>
        <time>2019-05-21T20:42:42Z</time>
      </trkpt>
      <trkpt lat="51.227856964849" lon="4.46379006509">
        <ele>10</ele>
        <time>2019-05-21T20:42:51Z</time>
      </trkpt>
      <trkpt lat="51.227745485579" lon="4.463091266087">
        <ele>7</ele>
        <time>2019-05-21T20:43:25Z</time>
      </trkpt>
      <trkpt lat="51.227689913582" lon="4.462882472958">
        <ele>3.6</ele>
        <time>2019-05-21T20:43:35Z</time>
      </trkpt>
      <trkpt lat="51.227560832322" lon="4.462313677224">
        <ele>0</ele>
        <time>2019-05-21T20:44:00Z</time>
      </trkpt>
      <trkpt lat="51.227462764092" lon="4.461896426242">
        <ele>0.4</ele>
        <time>2019-05-21T20:44:29Z</time>
      </trkpt>
      <trkpt lat="51.227449855966" lon="4.461772038846">
        <ele>2.2</ele>
        <time>2019-05-21T20:44:35Z</time>
      </trkpt>
      <trkpt lat="51.227420770773" lon="4.461617141334">
        <ele>0.4</ele>
        <time>2019-05-21T20:44:46Z</time>
      </trkpt>
      <trkpt lat="51.227394367788" lon="4.461552600704">
        <ele>1.6</ele>
        <time>2019-05-21T20:44:58Z</time>
      </trkpt>
      <trkpt lat="51.2273732454" lon="4.461311872536">
        <ele>0.2</ele>
        <time>2019-05-21T20:45:09Z</time>
      </trkpt>
      <trkpt lat="51.227360756369" lon="4.461214391039">
        <ele>0</ele>
        <time>2019-05-21T20:45:16Z</time>
      </trkpt>
      <trkpt lat="51.227370814649" lon="4.461068965074">
        <ele>0</ele>
        <time>2019-05-21T20:45:27Z</time>
      </trkpt>
      <trkpt lat="51.227341142723" lon="4.460357257945">
        <ele>12.6</ele>
        <time>2019-05-21T20:46:06Z</time>
      </trkpt>
      <trkpt lat="51.227168978497" lon="4.459680922434">
        <ele>12.2</ele>
        <time>2019-05-21T20:46:42Z</time>
      </trkpt>
      <trkpt lat="51.227064456204" lon="4.459179768633">
        <ele>1.6</ele>
        <time>2019-05-21T20:47:08Z</time>
      </trkpt>
      <trkpt lat="51.227468547603" lon="4.458890341626">
        <ele>0</ele>
        <time>2019-05-21T20:47:48Z</time>
      </trkpt>
      <trkpt lat="51.227887726422" lon="4.458616672591">
        <ele>0</ele>
        <time>2019-05-21T20:48:22Z</time>
      </trkpt>
      <trkpt lat="51.228132394083" lon="4.458503349303">
        <ele>0</ele>
        <time>2019-05-21T20:48:40Z</time>
      </trkpt>
      <trkpt lat="51.228241694059" lon="4.458419111208">
        <ele>0</ele>
        <time>2019-05-21T20:48:50Z</time>
      </trkpt>
      <trkpt lat="51.228663135991" lon="4.458150136037">
        <ele>0</ele>
        <time>2019-05-21T20:49:26Z</time>
      </trkpt>
      <trkpt lat="51.228739159824" lon="4.45814234087">
        <ele>0</ele>
        <time>2019-05-21T20:49:33Z</time>
      </trkpt>
      <trkpt lat="51.229026910451" lon="4.458101018103">
        <ele>2.6</ele>
        <time>2019-05-21T20:50:01Z</time>
      </trkpt>
      <trkpt lat="51.229473498083" lon="4.458024323718">
        <ele>7.4</ele>
        <time>2019-05-21T20:50:33Z</time>
      </trkpt>
      <trkpt lat="51.22956762682" lon="4.457964225495">
        <ele>8.2</ele>
        <time>2019-05-21T20:50:47Z</time>
      </trkpt>
      <trkpt lat="51.229694361148" lon="4.457928350963">
        <ele>7.8</ele>
        <time>2019-05-21T20:51:10Z</time>
      </trkpt>
      <trkpt lat="51.229665192136" lon="4.457862720686">
        <ele>5.6</ele>
        <time>2019-05-21T20:51:42Z</time>
      </trkpt>
    </trkseg>
  </trk>
</gpx>